createdAt,value
2022-12-03T00:00:24.920Z,47.71
2022-12-03T00:01:24.915Z,49.17
2022-12-03T00:02:25.035Z,51.48
2022-12-03T00:03:25.076Z,48.58
2022-12-03T00:04:24.895Z,49.93
2022-12-03T00:05:24.883Z,50.37
2022-12-03T00:06:25.655Z,50.19
2022-12-03T00:07:24.901Z,51.13
2022-12-03T00:08:24.914Z,49.56
2022-12-03T00:09:24.879Z,50.98
2022-12-03T00:10:24.855Z,50.79
2022-12-03T00:11:24.851Z,50.97
2022-12-03T00:12:24.848Z,51.05
2022-12-03T00:13:24.854Z,49.98
2022-12-03T00:14:24.853Z,51.63
2022-12-03T00:15:24.800Z,50.89
2022-12-03T00:16:24.893Z,51.47
2022-12-03T00:17:24.870Z,50.79
2022-12-03T00:18:24.790Z,50.78
2022-12-03T00:19:24.799Z,50.21
2022-12-03T00:20:24.791Z,50.41
2022-12-03T00:21:25.776Z,49.01
2022-12-03T00:22:24.767Z,50.22
2022-12-03T00:23:24.758Z,50.75
2022-12-03T00:24:24.754Z,48.25
2022-12-03T00:25:24.753Z,48.43
2022-12-03T00:26:24.739Z,49.58
2022-12-03T00:27:24.735Z,48.99
2022-12-03T00:28:24.728Z,50.42
2022-12-03T00:29:24.714Z,50.80
2022-12-03T00:30:24.732Z,49.21
2022-12-03T00:31:24.733Z,50.97
2022-12-03T00:32:24.709Z,50.57
2022-12-03T00:33:24.750Z,49.39
2022-12-03T00:34:24.713Z,49.31
2022-12-03T00:35:24.670Z,51.16
2022-12-03T00:36:24.678Z,50.66
2022-12-03T00:37:24.665Z,49.46
2022-12-03T00:38:24.720Z,51.53
2022-12-03T00:39:24.652Z,49.65
2022-12-03T00:40:24.638Z,49.53
2022-12-03T00:41:24.683Z,48.25
2022-12-03T00:42:24.636Z,48.55
2022-12-03T00:43:24.610Z,49.10
2022-12-03T00:44:24.619Z,48.91
2022-12-03T00:45:24.614Z,49.31
2022-12-03T00:46:24.693Z,49.72
2022-12-03T00:47:24.581Z,49.32
2022-12-03T00:48:24.595Z,48.24
2022-12-03T00:49:24.581Z,47.62
2022-12-03T00:50:24.573Z,50.01
2022-12-03T00:51:24.593Z,48.45
2022-12-03T00:52:24.570Z,47.49
2022-12-03T00:53:24.552Z,47.82
2022-12-03T00:54:29.998Z,49.05
2022-12-03T00:55:26.550Z,49.00
2022-12-03T00:56:24.567Z,48.54
2022-12-03T00:57:24.544Z,47.60
2022-12-03T00:58:24.529Z,47.85
2022-12-03T00:59:24.518Z,48.64
2022-12-03T01:00:24.514Z,47.29
2022-12-03T01:01:24.565Z,47.76
2022-12-03T01:02:24.609Z,48.51
2022-12-03T01:03:24.485Z,48.24
2022-12-03T01:04:24.558Z,47.18
2022-12-03T01:05:24.468Z,48.60
2022-12-03T01:06:24.472Z,47.39
2022-12-03T01:07:24.574Z,47.08
2022-12-03T01:08:24.449Z,48.30
2022-12-03T01:09:24.448Z,47.32
2022-12-03T01:10:24.440Z,49.64
2022-12-03T01:11:24.433Z,47.89
2022-12-03T01:12:24.424Z,47.83
2022-12-03T01:13:24.444Z,47.60
2022-12-03T01:14:24.417Z,49.34
2022-12-03T01:15:24.397Z,47.39
2022-12-03T01:16:24.472Z,50.14
2022-12-03T01:17:24.385Z,49.46
2022-12-03T01:18:24.394Z,48.79
2022-12-03T01:19:24.381Z,47.60
2022-12-03T01:20:24.369Z,47.49
2022-12-03T01:21:24.377Z,47.55
2022-12-03T01:22:24.349Z,48.77
2022-12-03T01:23:24.354Z,47.45
2022-12-03T01:24:24.365Z,48.24
2022-12-03T01:25:24.349Z,48.45
2022-12-03T01:26:24.325Z,47.28
2022-12-03T01:27:25.328Z,48.21
2022-12-03T01:28:24.321Z,49.50
2022-12-03T01:29:24.320Z,49.15
2022-12-03T01:30:24.305Z,47.26
2022-12-03T01:31:24.367Z,48.68
2022-12-03T01:32:24.289Z,48.03
2022-12-03T01:33:24.281Z,49.72
2022-12-03T01:34:24.307Z,50.45
2022-12-03T01:35:24.275Z,48.94
2022-12-03T01:36:24.257Z,49.77
2022-12-03T01:37:24.265Z,48.71
2022-12-03T01:38:24.257Z,47.55
2022-12-03T01:39:24.246Z,49.18
2022-12-03T01:40:24.240Z,49.36
2022-12-03T01:41:24.248Z,50.04
2022-12-03T01:42:24.221Z,48.25
2022-12-03T01:43:24.221Z,50.40
2022-12-03T01:44:24.216Z,47.97
2022-12-03T01:45:24.213Z,48.47
2022-12-03T01:46:24.289Z,48.35
2022-12-03T01:47:24.197Z,49.30
2022-12-03T01:48:24.180Z,47.34
2022-12-03T01:49:24.168Z,48.11
2022-12-03T01:50:24.189Z,47.30
2022-12-03T01:51:24.189Z,47.19
2022-12-03T01:52:24.176Z,49.24
2022-12-03T01:53:24.149Z,50.97
2022-12-03T01:54:24.141Z,48.63
2022-12-03T01:55:24.133Z,47.48
2022-12-03T01:56:24.141Z,47.44
2022-12-03T01:57:24.156Z,49.08
2022-12-03T01:58:24.108Z,47.76
2022-12-03T01:59:24.108Z,47.27
2022-12-03T02:00:24.128Z,48.37
2022-12-03T02:01:24.139Z,47.22
2022-12-03T02:02:24.111Z,48.28
2022-12-03T02:03:24.069Z,47.53
2022-12-03T02:04:25.125Z,47.51
2022-12-03T02:05:24.077Z,47.44
2022-12-03T02:06:24.061Z,47.49
2022-12-03T02:07:24.160Z,48.86
2022-12-03T02:08:24.069Z,48.90
2022-12-03T02:09:24.037Z,47.84
2022-12-03T02:10:24.020Z,49.06
2022-12-03T02:11:24.036Z,49.06
2022-12-03T02:12:24.013Z,48.47
2022-12-03T02:13:24.020Z,48.17
2022-12-03T02:14:24.007Z,48.57
2022-12-03T02:15:23.995Z,47.62
2022-12-03T02:16:24.088Z,47.80
2022-12-03T02:17:23.993Z,47.25
2022-12-03T02:18:23.987Z,49.16
2022-12-03T02:19:23.973Z,49.05
2022-12-03T02:20:23.980Z,48.84
2022-12-03T02:21:23.961Z,47.18
2022-12-03T02:22:23.944Z,48.14
2022-12-03T02:23:23.948Z,47.83
2022-12-03T02:24:23.929Z,48.96
2022-12-03T02:25:23.925Z,48.74
2022-12-03T02:26:23.919Z,48.18
2022-12-03T02:27:23.916Z,47.55
2022-12-03T02:28:23.913Z,47.71
2022-12-03T02:29:23.895Z,49.35
2022-12-03T02:30:23.890Z,47.98
2022-12-03T02:31:23.937Z,47.25
2022-12-03T02:32:23.868Z,49.71
2022-12-03T02:33:23.880Z,48.27
2022-12-03T02:34:23.844Z,48.15
2022-12-03T02:35:23.852Z,47.55
2022-12-03T02:36:23.874Z,48.28
2022-12-03T02:37:23.854Z,47.52
2022-12-03T02:38:23.909Z,49.89
2022-12-03T02:39:23.838Z,48.00
2022-12-03T02:40:23.815Z,49.42
2022-12-03T02:41:24.821Z,49.01
2022-12-03T02:42:23.818Z,48.22
2022-12-03T02:43:23.823Z,47.24
2022-12-03T02:44:23.806Z,47.48
2022-12-03T02:45:24.328Z,49.33
2022-12-03T02:46:23.879Z,49.54
2022-12-03T02:47:23.779Z,48.71
2022-12-03T02:48:23.769Z,47.87
2022-12-03T02:49:23.785Z,48.57
2022-12-03T02:50:24.755Z,50.11
2022-12-03T02:51:23.757Z,48.09
2022-12-03T02:52:23.746Z,48.41
2022-12-03T02:53:23.742Z,47.80
2022-12-03T02:54:23.736Z,48.64
2022-12-03T02:55:23.727Z,48.59
2022-12-03T02:56:23.764Z,48.26
2022-12-03T02:57:23.724Z,47.92
2022-12-03T02:58:23.717Z,47.73
2022-12-03T02:59:23.692Z,48.46
2022-12-03T03:00:23.739Z,48.36
2022-12-03T03:01:23.784Z,47.41
2022-12-03T03:02:23.759Z,49.46
2022-12-03T03:03:23.726Z,48.23
2022-12-03T03:04:23.669Z,48.31
2022-12-03T03:05:23.667Z,49.44
2022-12-03T03:06:23.660Z,47.74
2022-12-03T03:07:23.842Z,48.84
2022-12-03T03:08:23.643Z,50.02
2022-12-03T03:09:23.628Z,47.43
2022-12-03T03:10:23.629Z,48.27
2022-12-03T03:11:23.616Z,47.77
2022-12-03T03:12:23.631Z,49.47
2022-12-03T03:13:23.608Z,49.14
2022-12-03T03:14:23.596Z,49.27
2022-12-03T03:15:23.594Z,50.41
2022-12-03T03:16:23.625Z,48.66
2022-12-03T03:17:23.572Z,48.35
2022-12-03T03:18:23.584Z,47.35
2022-12-03T03:19:23.598Z,49.24
2022-12-03T03:20:23.548Z,48.53
2022-12-03T03:21:23.536Z,48.63
2022-12-03T03:22:23.536Z,48.16
2022-12-03T03:23:23.530Z,47.66
2022-12-03T03:24:23.547Z,49.96
2022-12-03T03:25:23.524Z,48.82
2022-12-03T03:26:23.512Z,49.73
2022-12-03T03:27:23.509Z,48.22
2022-12-03T03:28:23.503Z,47.55
2022-12-03T03:29:23.491Z,48.13
2022-12-03T03:30:23.504Z,47.81
2022-12-03T03:31:23.559Z,48.65
2022-12-03T03:32:23.476Z,48.64
2022-12-03T03:33:23.466Z,48.19
2022-12-03T03:34:23.465Z,47.06
2022-12-03T03:35:23.475Z,48.75
2022-12-03T03:36:23.449Z,49.20
2022-12-03T03:37:23.444Z,49.84
2022-12-03T03:38:23.432Z,48.33
2022-12-03T03:39:23.427Z,49.71
2022-12-03T03:40:23.424Z,48.88
2022-12-03T03:41:23.452Z,48.18
2022-12-03T03:42:23.413Z,47.93
2022-12-03T03:43:23.401Z,47.25
2022-12-03T03:44:23.392Z,47.03
2022-12-03T03:45:28.815Z,49.26
2022-12-03T03:46:25.468Z,49.73
2022-12-03T03:47:23.368Z,47.45
2022-12-03T03:48:24.381Z,48.16
2022-12-03T03:49:23.367Z,49.17
2022-12-03T03:50:23.360Z,48.47
2022-12-03T03:51:23.359Z,47.39
2022-12-03T03:52:23.347Z,49.85
2022-12-03T03:53:23.327Z,50.38
2022-12-03T03:54:23.331Z,48.56
2022-12-03T03:55:23.328Z,48.79
2022-12-03T03:56:23.319Z,48.87
2022-12-03T03:57:23.328Z,51.58
2022-12-03T03:58:23.303Z,48.50
2022-12-03T03:59:23.288Z,47.80
2022-12-03T04:00:23.286Z,48.74
2022-12-03T04:01:23.327Z,48.13
2022-12-03T04:02:23.308Z,49.18
2022-12-03T04:03:23.268Z,49.09
2022-12-03T04:04:23.366Z,51.66
2022-12-03T04:05:23.251Z,48.64
2022-12-03T04:06:23.247Z,47.96
2022-12-03T04:07:23.243Z,50.71
2022-12-03T04:08:23.391Z,47.53
2022-12-03T04:09:23.232Z,49.42
2022-12-03T04:10:23.221Z,48.38
2022-12-03T04:11:23.211Z,47.81
2022-12-03T04:12:24.212Z,48.19
2022-12-03T04:13:23.231Z,48.26
2022-12-03T04:14:23.200Z,49.92
2022-12-03T04:15:23.199Z,48.20
2022-12-03T04:16:23.215Z,50.84
2022-12-03T04:17:23.180Z,48.52
2022-12-03T04:18:23.179Z,47.88
2022-12-03T04:19:23.188Z,49.05
2022-12-03T04:20:23.156Z,48.20
2022-12-03T04:21:23.163Z,49.11
2022-12-03T04:22:23.167Z,47.82
2022-12-03T04:23:29.288Z,49.35
2022-12-03T04:24:24.197Z,51.14
2022-12-03T04:25:23.148Z,48.62
2022-12-03T04:26:23.121Z,52.88
2022-12-03T04:27:23.135Z,51.93
2022-12-03T04:28:23.099Z,51.52
2022-12-03T04:29:23.099Z,50.34
2022-12-03T04:30:23.180Z,49.22
2022-12-03T04:31:23.139Z,49.45
2022-12-03T04:32:23.091Z,48.31
2022-12-03T04:33:23.071Z,48.51
2022-12-03T04:34:23.068Z,51.20
2022-12-03T04:35:23.133Z,50.83
2022-12-03T04:36:23.052Z,50.95
2022-12-03T04:37:23.048Z,51.22
2022-12-03T04:38:23.130Z,49.38
2022-12-03T04:39:23.036Z,48.87
2022-12-03T04:40:23.027Z,48.36
2022-12-03T04:41:23.023Z,49.33
2022-12-03T04:42:23.015Z,49.75
2022-12-03T04:43:23.019Z,49.46
2022-12-03T04:44:23.003Z,50.15
2022-12-03T04:45:22.991Z,50.35
2022-12-03T04:46:23.040Z,48.38
2022-12-03T04:47:22.979Z,49.54
2022-12-03T04:48:22.988Z,53.37
2022-12-03T04:49:22.974Z,50.59
2022-12-03T04:50:22.959Z,48.87
2022-12-03T04:51:22.955Z,48.23
2022-12-03T04:52:22.947Z,47.88
2022-12-03T04:53:22.938Z,48.95
2022-12-03T04:54:22.947Z,49.17
2022-12-03T04:55:22.939Z,48.54
2022-12-03T04:56:22.915Z,50.19
2022-12-03T04:57:22.924Z,48.91
2022-12-03T04:58:22.938Z,48.20
2022-12-03T04:59:22.903Z,48.71
2022-12-03T05:00:22.896Z,50.95
2022-12-03T05:01:22.979Z,50.54
2022-12-03T05:02:22.945Z,47.87
2022-12-03T05:03:22.875Z,48.47
2022-12-03T05:04:22.867Z,50.45
2022-12-03T05:05:22.862Z,48.90
2022-12-03T05:06:22.855Z,50.30
2022-12-03T05:07:22.877Z,49.72
2022-12-03T05:08:22.842Z,48.85
2022-12-03T05:09:22.845Z,50.55
2022-12-03T05:10:22.838Z,49.09
2022-12-03T05:11:23.779Z,48.95
2022-12-03T05:12:22.838Z,49.19
2022-12-03T05:13:22.812Z,48.99
2022-12-03T05:14:22.831Z,49.59
2022-12-03T05:15:22.794Z,51.16
2022-12-03T05:16:22.871Z,49.69
2022-12-03T05:17:22.774Z,50.95
2022-12-03T05:18:22.788Z,50.39
2022-12-03T05:19:22.775Z,49.29
2022-12-03T05:20:22.782Z,48.95
2022-12-03T05:21:22.771Z,51.21
2022-12-03T05:22:22.747Z,50.37
2022-12-03T05:23:22.738Z,51.55
2022-12-03T05:24:22.742Z,49.10
2022-12-03T05:25:22.726Z,49.93
2022-12-03T05:26:22.751Z,50.83
2022-12-03T05:27:24.117Z,52.74
2022-12-03T05:28:23.732Z,50.61
2022-12-03T05:29:22.773Z,51.10
2022-12-03T05:30:22.906Z,50.62
2022-12-03T05:31:22.760Z,49.01
2022-12-03T05:32:22.682Z,49.39
2022-12-03T05:33:22.679Z,51.44
2022-12-03T05:34:22.700Z,49.38
2022-12-03T05:35:22.670Z,51.73
2022-12-03T05:36:22.655Z,51.18
2022-12-03T05:37:22.648Z,49.49
2022-12-03T05:38:22.638Z,50.15
2022-12-03T05:39:22.667Z,50.25
2022-12-03T05:40:22.640Z,52.81
2022-12-03T05:41:22.628Z,50.14
2022-12-03T05:42:22.639Z,51.24
2022-12-03T05:43:22.626Z,50.60
2022-12-03T05:44:22.602Z,51.41
2022-12-03T05:45:22.601Z,49.74
2022-12-03T05:46:22.685Z,49.18
2022-12-03T05:47:22.602Z,52.60
2022-12-03T05:48:22.571Z,48.82
2022-12-03T05:49:22.595Z,48.94
2022-12-03T05:50:22.568Z,49.54
2022-12-03T05:51:22.587Z,51.07
2022-12-03T05:52:22.593Z,49.04
2022-12-03T05:53:22.551Z,51.18
2022-12-03T05:54:22.540Z,50.06
2022-12-03T05:55:22.559Z,50.89
2022-12-03T05:56:22.525Z,49.81
2022-12-03T05:57:22.520Z,49.53
2022-12-03T05:58:22.518Z,50.81
2022-12-03T05:59:22.510Z,50.46
2022-12-03T06:00:22.495Z,48.29
2022-12-03T06:01:22.483Z,51.06
2022-12-03T06:02:22.572Z,49.06
2022-12-03T06:03:22.640Z,50.89
2022-12-03T06:04:22.458Z,48.73
2022-12-03T06:05:22.465Z,49.37
2022-12-03T06:06:22.453Z,48.49
2022-12-03T06:07:22.452Z,50.95
2022-12-03T06:08:22.462Z,49.53
2022-12-03T06:09:22.445Z,49.48
2022-12-03T06:10:22.429Z,50.49
2022-12-03T06:11:22.421Z,53.61
2022-12-03T06:12:22.418Z,50.63
2022-12-03T06:13:22.410Z,47.88
2022-12-03T06:14:22.421Z,49.99
2022-12-03T06:15:22.398Z,50.15
2022-12-03T06:16:22.418Z,51.46
2022-12-03T06:17:22.386Z,51.52
2022-12-03T06:18:22.449Z,52.59
2022-12-03T06:19:22.382Z,51.10
2022-12-03T06:20:22.370Z,48.91
2022-12-03T06:21:22.365Z,49.60
2022-12-03T06:22:22.353Z,49.54
2022-12-03T06:23:22.346Z,55.09
2022-12-03T06:24:22.353Z,55.48
2022-12-03T06:25:22.324Z,53.99
2022-12-03T06:26:22.325Z,48.51
2022-12-03T06:27:22.319Z,48.74
2022-12-03T06:28:22.299Z,49.38
2022-12-03T06:29:22.331Z,50.66
2022-12-03T06:30:22.309Z,51.28
2022-12-03T06:31:22.439Z,48.92
2022-12-03T06:32:22.292Z,49.01
2022-12-03T06:33:22.269Z,49.60
2022-12-03T06:34:23.275Z,49.41
2022-12-03T06:35:22.271Z,50.81
2022-12-03T06:36:23.367Z,51.06
2022-12-03T06:37:22.251Z,50.39
2022-12-03T06:38:22.256Z,49.72
2022-12-03T06:39:22.386Z,50.43
2022-12-03T06:40:22.250Z,51.49
2022-12-03T06:41:22.221Z,50.01
2022-12-03T06:42:22.218Z,52.06
2022-12-03T06:43:22.199Z,50.57
2022-12-03T06:44:23.205Z,51.55
2022-12-03T06:45:22.200Z,51.07
2022-12-03T06:46:22.298Z,49.56
2022-12-03T06:47:22.178Z,50.16
2022-12-03T06:48:22.178Z,51.09
2022-12-03T06:49:22.229Z,50.58
2022-12-03T06:50:22.148Z,50.36
2022-12-03T06:51:22.157Z,51.12
2022-12-03T06:52:22.143Z,50.44
2022-12-03T06:53:22.142Z,50.11
2022-12-03T06:54:22.292Z,50.54
2022-12-03T06:55:22.161Z,49.55
2022-12-03T06:56:22.715Z,52.11
2022-12-03T06:57:23.139Z,52.38
2022-12-03T06:58:22.113Z,50.65
2022-12-03T06:59:22.102Z,51.36
2022-12-03T07:00:22.113Z,50.32
2022-12-03T07:01:22.113Z,49.75
2022-12-03T07:02:22.079Z,49.41
2022-12-03T07:03:22.162Z,49.42
2022-12-03T07:04:22.074Z,50.94
2022-12-03T07:05:22.067Z,50.90
2022-12-03T07:06:22.069Z,50.07
2022-12-03T07:07:22.054Z,48.86
2022-12-03T07:08:22.051Z,50.57
2022-12-03T07:09:22.047Z,50.55
2022-12-03T07:10:22.033Z,52.04
2022-12-03T07:11:22.039Z,50.95
2022-12-03T07:12:22.044Z,51.53
2022-12-03T07:13:22.034Z,50.47
2022-12-03T07:14:22.003Z,49.56
2022-12-03T07:15:21.999Z,52.70
2022-12-03T07:16:22.052Z,50.70
2022-12-03T07:17:22.005Z,49.61
2022-12-03T07:18:21.978Z,49.63
2022-12-03T07:19:22.863Z,50.07
2022-12-03T07:20:21.982Z,52.30
2022-12-03T07:21:21.971Z,52.10
2022-12-03T07:22:21.966Z,52.16
2022-12-03T07:23:21.970Z,51.63
2022-12-03T07:24:21.943Z,51.82
2022-12-03T07:25:23.635Z,53.61
2022-12-03T07:26:22.937Z,52.32
2022-12-03T07:27:21.921Z,50.14
2022-12-03T07:28:21.938Z,52.73
2022-12-03T07:29:21.921Z,52.54
2022-12-03T07:30:21.920Z,50.03
2022-12-03T07:31:21.980Z,52.42
2022-12-03T07:32:21.899Z,54.57
2022-12-03T07:33:21.881Z,51.12
2022-12-03T07:34:22.911Z,51.74
2022-12-03T07:35:21.879Z,52.01
2022-12-03T07:36:21.875Z,52.62
2022-12-03T07:37:23.489Z,51.61
2022-12-03T07:38:22.876Z,57.27
2022-12-03T07:39:21.954Z,51.55
2022-12-03T07:40:21.894Z,52.18
2022-12-03T07:41:21.878Z,51.61
2022-12-03T07:42:21.866Z,51.47
2022-12-03T07:43:21.822Z,51.45
2022-12-03T07:44:21.831Z,51.93
2022-12-03T07:45:21.834Z,51.93
2022-12-03T07:46:21.841Z,51.04
2022-12-03T07:47:21.811Z,52.11
2022-12-03T07:48:21.858Z,51.96
2022-12-03T07:49:21.793Z,52.93
2022-12-03T07:50:21.784Z,52.98
2022-12-03T07:51:21.810Z,53.21
2022-12-03T07:52:21.775Z,53.25
2022-12-03T07:53:21.758Z,51.68
2022-12-03T07:54:21.760Z,55.15
2022-12-03T07:55:21.749Z,52.09
2022-12-03T07:56:21.770Z,52.98
2022-12-03T07:57:21.780Z,52.14
2022-12-03T07:58:21.735Z,50.89
2022-12-03T07:59:21.714Z,50.16
2022-12-03T08:00:21.710Z,52.31
2022-12-03T08:01:21.769Z,51.77
2022-12-03T08:02:22.028Z,52.74
2022-12-03T08:03:21.687Z,52.57
2022-12-03T08:04:22.687Z,54.28
2022-12-03T08:05:21.685Z,51.04
2022-12-03T08:06:21.681Z,50.75
2022-12-03T08:07:21.685Z,54.19
2022-12-03T08:08:21.663Z,51.55
2022-12-03T08:09:21.663Z,54.53
2022-12-03T08:10:21.663Z,52.37
2022-12-03T08:11:21.671Z,52.29
2022-12-03T08:12:21.659Z,50.75
2022-12-03T08:13:21.644Z,50.91
2022-12-03T08:14:21.614Z,52.26
2022-12-03T08:15:21.623Z,51.07
2022-12-03T08:16:21.748Z,52.19
2022-12-03T08:17:21.604Z,51.53
2022-12-03T08:18:21.598Z,50.05
2022-12-03T08:19:21.590Z,52.91
2022-12-03T08:20:21.575Z,51.55
2022-12-03T08:21:21.576Z,51.16
2022-12-03T08:22:21.590Z,51.58
2022-12-03T08:23:21.622Z,52.42
2022-12-03T08:24:21.554Z,52.33
2022-12-03T08:25:21.549Z,52.81
2022-12-03T08:26:21.542Z,52.47
2022-12-03T08:27:21.551Z,51.31
2022-12-03T08:28:21.532Z,52.11
2022-12-03T08:29:21.530Z,54.22
2022-12-03T08:30:21.515Z,54.26
2022-12-03T08:31:21.581Z,51.37
2022-12-03T08:32:21.555Z,52.22
2022-12-03T08:33:21.509Z,52.74
2022-12-03T08:34:21.489Z,51.48
2022-12-03T08:35:21.523Z,54.14
2022-12-03T08:36:21.484Z,54.13
2022-12-03T08:37:21.470Z,52.70
2022-12-03T08:38:21.470Z,53.94
2022-12-03T08:39:21.464Z,51.93
2022-12-03T08:40:21.457Z,52.23
2022-12-03T08:41:21.447Z,53.00
2022-12-03T08:42:21.441Z,53.45
2022-12-03T08:43:21.466Z,52.16
2022-12-03T08:44:21.426Z,53.10
2022-12-03T08:45:21.417Z,50.99
2022-12-03T08:46:21.465Z,55.79
2022-12-03T08:47:21.399Z,58.59
2022-12-03T08:48:21.407Z,54.20
2022-12-03T08:49:21.396Z,52.93
2022-12-03T08:50:21.386Z,54.79
2022-12-03T08:51:21.374Z,54.01
2022-12-03T08:52:21.437Z,53.79
2022-12-03T08:53:21.371Z,52.85
2022-12-03T08:54:21.363Z,52.48
2022-12-03T08:55:21.355Z,55.66
2022-12-03T08:56:21.352Z,53.39
2022-12-03T08:57:21.352Z,59.29
2022-12-03T08:58:21.370Z,61.63
2022-12-03T08:59:21.342Z,52.89
2022-12-03T09:00:21.318Z,52.97
2022-12-03T09:01:21.380Z,52.81
2022-12-03T09:02:21.312Z,54.76
2022-12-03T09:03:21.294Z,52.58
2022-12-03T09:04:21.413Z,52.08
2022-12-03T09:05:21.294Z,53.16
2022-12-03T09:06:21.281Z,53.62
2022-12-03T09:07:21.273Z,52.85
2022-12-03T09:08:21.316Z,53.44
2022-12-03T09:09:21.270Z,52.99
2022-12-03T09:10:21.256Z,51.77
2022-12-03T09:11:21.247Z,54.83
2022-12-03T09:12:21.266Z,53.53
2022-12-03T09:13:21.241Z,52.81
2022-12-03T09:14:21.284Z,53.96
2022-12-03T09:15:21.223Z,53.75
2022-12-03T09:16:21.299Z,54.09
2022-12-03T09:17:21.234Z,54.70
2022-12-03T09:18:21.207Z,53.22
2022-12-03T09:19:21.193Z,55.31
2022-12-03T09:20:21.195Z,53.83
2022-12-03T09:21:21.215Z,54.63
2022-12-03T09:22:21.167Z,52.91
2022-12-03T09:23:21.190Z,55.23
2022-12-03T09:24:21.167Z,53.35
2022-12-03T09:25:21.181Z,53.07
2022-12-03T09:26:21.159Z,54.88
2022-12-03T09:27:21.164Z,54.22
2022-12-03T09:28:21.134Z,52.84
2022-12-03T09:29:21.133Z,52.27
2022-12-03T09:30:21.182Z,53.89
2022-12-03T09:31:21.141Z,52.68
2022-12-03T09:32:21.222Z,52.84
2022-12-03T09:33:21.109Z,53.74
2022-12-03T09:34:21.093Z,54.60
2022-12-03T09:35:21.096Z,53.12
2022-12-03T09:36:21.097Z,54.92
2022-12-03T09:37:21.132Z,54.86
2022-12-03T09:38:21.073Z,55.36
2022-12-03T09:39:21.068Z,52.93
2022-12-03T09:40:21.084Z,50.87
2022-12-03T09:41:21.051Z,54.14
2022-12-03T09:42:21.050Z,56.17
2022-12-03T09:43:21.030Z,52.59
2022-12-03T09:44:21.027Z,52.74
2022-12-03T09:45:21.024Z,52.45
2022-12-03T09:46:21.070Z,53.24
2022-12-03T09:47:21.011Z,54.37
2022-12-03T09:48:21.024Z,52.30
2022-12-03T09:49:20.991Z,53.25
2022-12-03T09:50:21.080Z,54.02
2022-12-03T09:51:21.983Z,55.40
2022-12-03T09:52:20.974Z,54.67
2022-12-03T09:53:20.971Z,54.40
2022-12-03T09:54:20.968Z,54.20
2022-12-03T09:55:20.957Z,54.40
2022-12-03T09:56:20.952Z,53.41
2022-12-03T09:57:20.954Z,54.34
2022-12-03T09:58:20.927Z,52.72
2022-12-03T09:59:20.939Z,53.07
2022-12-03T10:00:20.969Z,52.88
2022-12-03T10:01:21.009Z,54.09
2022-12-03T10:02:20.898Z,52.63
2022-12-03T10:03:24.108Z,53.27
2022-12-03T10:04:21.970Z,52.68
2022-12-03T10:05:20.936Z,51.98
2022-12-03T10:06:20.911Z,53.28
2022-12-03T10:07:20.892Z,55.00
2022-12-03T10:08:20.969Z,53.70
2022-12-03T10:09:20.914Z,53.37
2022-12-03T10:10:20.881Z,53.03
2022-12-03T10:11:20.852Z,52.37
2022-12-03T10:12:20.850Z,54.22
2022-12-03T10:13:25.487Z,56.36
2022-12-03T10:14:22.816Z,52.91
2022-12-03T10:15:20.841Z,53.02
2022-12-03T10:16:21.185Z,52.67
2022-12-03T10:17:20.811Z,53.51
2022-12-03T10:18:20.795Z,53.35
2022-12-03T10:19:20.800Z,53.22
2022-12-03T10:20:20.816Z,52.37
2022-12-03T10:21:20.815Z,53.57
2022-12-03T10:22:20.811Z,52.48
2022-12-03T10:23:20.785Z,53.89
2022-12-03T10:24:20.848Z,54.99
2022-12-03T10:25:21.264Z,53.68
2022-12-03T10:26:20.751Z,52.78
2022-12-03T10:27:20.748Z,51.94
2022-12-03T10:28:20.740Z,52.18
2022-12-03T10:29:20.761Z,54.62
2022-12-03T10:30:20.718Z,53.38
2022-12-03T10:31:20.778Z,52.98
2022-12-03T10:32:20.725Z,52.10
2022-12-03T10:33:20.708Z,54.70
2022-12-03T10:34:20.698Z,53.47
2022-12-03T10:35:20.711Z,53.22
2022-12-03T10:36:20.693Z,53.21
2022-12-03T10:37:20.689Z,53.60
2022-12-03T10:38:20.677Z,51.57
2022-12-03T10:39:20.658Z,54.03
2022-12-03T10:40:20.663Z,52.95
2022-12-03T10:41:20.678Z,54.47
2022-12-03T10:42:20.642Z,54.33
2022-12-03T10:43:21.638Z,52.85
2022-12-03T10:44:20.629Z,52.43
2022-12-03T10:45:20.617Z,51.68
2022-12-03T10:46:20.747Z,53.10
2022-12-03T10:47:20.794Z,53.89
2022-12-03T10:48:20.602Z,51.56
2022-12-03T10:49:20.599Z,54.00
2022-12-03T10:50:20.597Z,52.47
2022-12-03T10:51:20.582Z,53.25
2022-12-03T10:52:25.469Z,53.02
2022-12-03T10:53:22.585Z,55.79
2022-12-03T10:54:20.562Z,52.59
2022-12-03T10:55:20.557Z,54.53
2022-12-03T10:56:20.549Z,50.85
2022-12-03T10:57:20.571Z,53.48
2022-12-03T10:58:20.553Z,52.22
2022-12-03T10:59:20.528Z,52.92
2022-12-03T11:00:20.514Z,53.88
2022-12-03T11:01:20.564Z,54.76
2022-12-03T11:02:20.508Z,53.80
2022-12-03T11:03:20.543Z,55.51
2022-12-03T11:04:20.498Z,53.76
2022-12-03T11:05:20.497Z,53.33
2022-12-03T11:06:20.495Z,52.85
2022-12-03T11:07:20.470Z,51.87
2022-12-03T11:08:20.554Z,53.51
2022-12-03T11:09:20.466Z,53.37
2022-12-03T11:10:20.461Z,52.66
2022-12-03T11:11:20.457Z,52.65
2022-12-03T11:12:20.442Z,52.57
2022-12-03T11:13:20.464Z,58.19
2022-12-03T11:14:23.039Z,52.22
2022-12-03T11:15:21.426Z,51.68
2022-12-03T11:16:20.473Z,53.73
2022-12-03T11:17:20.410Z,57.31
2022-12-03T11:18:20.404Z,52.70
2022-12-03T11:19:20.395Z,54.81
2022-12-03T11:20:22.982Z,53.20
2022-12-03T11:21:21.381Z,53.23
2022-12-03T11:22:20.373Z,53.53
2022-12-03T11:23:20.385Z,52.55
2022-12-03T11:24:20.473Z,51.36
2022-12-03T11:25:20.360Z,54.59
2022-12-03T11:26:20.362Z,52.84
2022-12-03T11:27:20.357Z,54.13
2022-12-03T11:28:20.370Z,52.57
2022-12-03T11:29:20.345Z,53.04
2022-12-03T11:30:20.368Z,54.78
2022-12-03T11:31:20.417Z,52.76
2022-12-03T11:32:20.313Z,52.11
2022-12-03T11:33:20.345Z,52.52
2022-12-03T11:34:20.301Z,54.12
2022-12-03T11:35:20.305Z,53.32
2022-12-03T11:36:36.518Z,52.45
2022-12-03T11:37:21.305Z,52.97
2022-12-03T11:38:20.293Z,53.71
2022-12-03T11:39:20.273Z,52.91
2022-12-03T11:40:20.310Z,52.26
2022-12-03T11:41:20.263Z,53.18
2022-12-03T11:42:20.272Z,51.82
2022-12-03T11:43:20.262Z,51.73
2022-12-03T11:44:20.248Z,52.83
2022-12-03T11:45:20.232Z,52.82
2022-12-03T11:46:20.289Z,53.77
2022-12-03T11:47:20.209Z,53.70
2022-12-03T11:48:20.197Z,52.03
2022-12-03T11:49:20.197Z,54.70
2022-12-03T11:50:20.201Z,53.45
2022-12-03T11:51:20.177Z,52.03
2022-12-03T11:52:20.168Z,52.92
2022-12-03T11:53:20.180Z,53.97
2022-12-03T11:54:20.175Z,52.57
2022-12-03T11:55:20.173Z,55.48
2022-12-03T11:56:20.160Z,53.92
2022-12-03T11:57:20.137Z,54.00
2022-12-03T11:58:20.136Z,56.35
2022-12-03T11:59:20.129Z,54.64
2022-12-03T12:00:20.136Z,52.49
2022-12-03T12:01:20.126Z,51.46
2022-12-03T12:02:20.117Z,53.21
2022-12-03T12:03:20.271Z,52.32
2022-12-03T12:04:20.168Z,52.28
2022-12-03T12:05:20.108Z,52.58
2022-12-03T12:06:20.081Z,51.50
2022-12-03T12:07:20.081Z,50.81
2022-12-03T12:08:20.147Z,53.14
2022-12-03T12:09:20.064Z,52.54
2022-12-03T12:10:20.054Z,52.67
2022-12-03T12:11:20.086Z,52.56
2022-12-03T12:12:20.037Z,51.80
2022-12-03T12:13:20.040Z,52.16
2022-12-03T12:14:20.028Z,54.06
2022-12-03T12:15:20.054Z,53.93
2022-12-03T12:16:20.071Z,54.56
2022-12-03T12:17:20.010Z,53.49
2022-12-03T12:18:20.004Z,52.32
2022-12-03T12:19:20.041Z,53.55
2022-12-03T12:20:19.992Z,53.70
2022-12-03T12:21:20.022Z,54.18
2022-12-03T12:22:19.969Z,52.96
2022-12-03T12:23:19.970Z,53.68
2022-12-03T12:24:19.961Z,54.88
2022-12-03T12:25:19.947Z,54.14
2022-12-03T12:26:19.950Z,52.78
2022-12-03T12:27:19.954Z,58.20
2022-12-03T12:28:19.945Z,54.15
2022-12-03T12:29:19.933Z,53.41
2022-12-03T12:30:19.943Z,52.21
2022-12-03T12:31:19.961Z,53.65
2022-12-03T12:32:19.920Z,52.16
2022-12-03T12:33:19.906Z,53.43
2022-12-03T12:34:19.892Z,51.95
2022-12-03T12:35:19.927Z,53.13
2022-12-03T12:36:19.906Z,54.74
2022-12-03T12:37:19.912Z,54.49
2022-12-03T12:38:20.626Z,54.52
2022-12-03T12:39:19.860Z,52.64
2022-12-03T12:40:19.862Z,53.24
2022-12-03T12:41:19.898Z,53.21
2022-12-03T12:42:19.858Z,52.43
2022-12-03T12:43:23.778Z,51.69
2022-12-03T12:44:20.834Z,54.78
2022-12-03T12:45:19.824Z,53.63
2022-12-03T12:46:46.620Z,53.51
2022-12-03T12:47:21.894Z,53.32
2022-12-03T12:48:19.802Z,52.51
2022-12-03T12:49:19.817Z,54.60
2022-12-03T12:50:19.799Z,53.30
2022-12-03T12:51:19.807Z,51.86
2022-12-03T12:52:19.788Z,52.44